To NAV CANADA Home Page Login to a new session Search on AWWS site Disclaimer Vers la page française équivalente Tips FAQ What's new on the site To the Forecasts and Observations / NOTAM section To "File a Flight Plan" website Publications and other links Update of the User's profile FIC Telephone Numbers My Weather Data Folder Route Weather Data Regional Weather Data Local Weather Data To the Forecasts and Observations / NOTAM section
Request Generated 04/12/2021 at 03:56:20 UTC . Weather information available at that time is displayed.

METAR/TAF

KITCHENER/WATERLOO/ON    (show WxCam)

SPECI CYKF 120328Z AUTO 25007KT 4SM -RA BR FEW006 BKN010 OVC014 11/10 A2957 RMK SLP016 DENSITY ALT 1200FT=
SPECI CYKF 120306Z AUTO 22006KT 5SM -RA BR OVC008 12/11 A2956 RMK SLP014 DENSITY ALT 1300FT=
METAR CYKF 120300Z AUTO 20007KT 6SM -RA BR BKN008 OVC013 12/11 A2956 RMK SLP013 DENSITY ALT 1400FT=
SPECI CYKF 120258Z AUTO 20006KT 6SM -RA BR BKN008 OVC013 12/11 A2956 RMK SLP014 DENSITY ALT 1400FT=
SPECI CYKF 120249Z AUTO 20007KT 5SM -RA BR BKN008 OVC013 12/11 A2956 RMK SLP014 DENSITY ALT 1400FT=
SPECI CYKF 120234Z AUTO 17009KT 6SM -RA BR BKN010 OVC013 13/12 A2956 RMK SLP012 DENSITY ALT 1500FT=
SPECI CYKF 120208Z AUTO 14005KT 9SM BKN010 BKN035 OVC042 13/12 A2955 RMK SLP009 DENSITY ALT 1500FT=
METAR CYKF 120200Z AUTO 11005KT 9SM SCT012 BKN036 OVC044 13/12 A2955 RMK SLP009 DENSITY ALT 1500FT=
METAR CYKF 120100Z AUTO 07007KT 9SM FEW050 BKN071 OVC083 13/12 A2954 RMK LTNG DIST W SLP005 DENSITY ALT 1500FT=

TAF AMD CYKF 120307Z 1203/1214 20008KT 2SM -RA BR BKN008 OVC012 TEMPO
1203/1208 6SM -DZ BR SCT008 OVC012
FM120800 32005KT 11/2SM -RA BR OVC005
RMK FCST BASED ON AUTO OBS. NXT FCST BY 120800Z=

LONDON/ON    

METAR CYXU 120300Z 12003KT 12SM -SHRA OVC050 11/10 A2955 RMK SC8 CVCTV CLD EMBD SLP010 DENSITY ALT 1100FT=
METAR CYXU 120200Z 14002KT 12SM -SHRA OVC048 11/09 A2956 RMK SC8 CVCTV CLD EMBD SLP012 DENSITY ALT 1200FT=
METAR CYXU 120100Z 17004KT 12SM -SHRA OVC059 12/09 A2954 RMK SC8 CVCTV CLD EMBD SLP007 DENSITY ALT 1200FT=

TAF CYXU 112338Z 1200/1224 21008KT P6SM SCT050 BKN120 TEMPO 1200/1204
P6SM -SHRA FEW008 OVC050
FM120400 VRB03KT 4SM -SHRA BR FEW005 BKN020 OVC040 TEMPO
1204/1207 6SM BR SCT020 OVC040 PROB30 1204/1207 2SM -RA BR
BKN005 OVC020
FM120700 VRB03KT 11/2SM -RA BR OVC005
FM121500 VRB03KT 5SM -RA BR BKN008 OVC020
FM121700 20008KT P6SM -SHRA BKN030 OVC050
RMK NXT FCST BY 120600Z=

HAMILTON/ON    

SPECI CYHM 120343Z 28004KT 1SM R12/3000V5000FT/U -RA BR OVC025 10/10 A2956 RMK FG1SC7 SLP012 DENSITY ALT 900FT=
SPECI CYHM 120332Z 28004KT 280V010 3/4SM R12/2800V3000FT/N -RA BR OVC030 10/10 A2956 RMK FG2SC6 SLP014 DENSITY ALT 800FT=
SPECI CYHM 120321Z 01002KT 1/2SM R12/2600V4500FT/D -RA FG VV001 10/10 A2957 RMK FG8 SLP017 DENSITY ALT 800FT=
METAR CYHM 120300Z 35004KT 1/2SM R12/2400V3000FT/N FG VV001 10/10 A2957 RMK FG8 SLP016 DENSITY ALT 800FT=
SPECI CYHM 120241Z 33006KT 1/2SM R12/2600V3000FT/N FG OVC012 11/11 A2956 RMK FG6ST2 SLP013 DENSITY ALT 900FT=
SPECI CYHM 120217Z 25008KT 1/4SM R12/1100V1800FT/U FG VV001 10/10 A2956 RMK FG8 SLP013 DENSITY ALT 900FT=
METAR CYHM 120200Z 25006KT 240V340 1/8SM R12/0800V1100FT/N FG VV001 10/10 A2955 RMK FG8 PRESRR SLP011 DENSITY ALT 800FT=
SPECI CYHM 120121Z 03004KT 1/8SM R12/1200V1600FT/D FG VV001 10/10 A2954 RMK FG8 SLP008 DENSITY ALT 800FT=
METAR CYHM 120100Z 04006KT 1/4SM R12/1400V1800FT/N FG VV001 10/10 A2954 RMK FG8 SLP006 DENSITY ALT 800FT=

TAF AMD CYHM 120309Z 1203/1224 33006KT 1/2SM -DZ FG VV001 TEMPO
1203/1204 6SM -RA BR OVC006
FM120400 27006KT P6SM BKN030 OVC050 TEMPO 1204/1208 5SM -SHRA BR
FEW005 OVC020 PROB30 1205/1208 2SM -SHRA BR BKN005 OVC020
FM120800 30005KT 2SM -RA BR BKN005 OVC030
FM121800 06010KT 1SM -RA -DZ BR OVC003
RMK NXT FCST BY 120600Z=

TORONTO/LESTER B. PEARSON INTL/ON    

METAR CYYZ 120300Z 10010G17KT 10SM SCT009 BKN072 OVC140 13/12 A2955 RMK CF3AC3AC2 SLP008 DENSITY ALT 900FT=
SPECI CYYZ 120231Z 09013G19KT 10SM SCT008 BKN085 BKN140 13/12 A2954 RMK SC3AC3AC1 SLP006 DENSITY ALT 900FT=
METAR CYYZ 120200Z 08016KT 8SM -RA OVC005 13/13 A2954 RMK SC8 SLP007 DENSITY ALT 900FT=
SPECI CYYZ 120123Z 07012G20KT 8SM -RA BKN006 OVC060 13/13 A2954 RMK SC7SC1 SLP006 DENSITY ALT 900FT=
METAR CYYZ 120100Z 07012KT 8SM -RA SCT005 OVC076 13/13 A2954 RMK CF3AC5 SLP006 DENSITY ALT 900FT=

TAF CYYZ 120242Z 1203/1306 09012G22KT 6SM BR SCT008 OVC050 TEMPO
1203/1205 2SM -RA -DZ BR BKN008 OVC050 PROB30 1203/1205 3/4SM
-DZ BR OVC003
FM120500 08012G22KT 6SM -RA BR OVC005 TEMPO 1205/1211 11/2SM -RA
BR OVC003 PROB40 1205/1211 3/4SM -DZ BR
FM121100 07012KT 3SM -RA BR OVC004 PROB30 1211/1216 11/2SM SHRA
BR OVC003
FM121800 07010KT 5SM -RA -DZ BR OVC005
FM130300 08008KT 2SM -DZ BR OVC003
RMK NXT FCST BY 120600Z=

TORONTO/BILLY BISHOP TORONTO CITY AIRPORT/ON    (show WxCam)

SPECI CYTZ 120343Z AUTO 07013G19KT 9SM OVC025 12/11 A2956 RMK SLP013 DENSITY ALT 400FT=
SPECI CYTZ 120315Z AUTO 07011G18KT 9SM SCT005 BKN013 OVC020 12/11 A2956 RMK SLP013 DENSITY ALT 400FT=
SPECI CYTZ 120308Z AUTO 07012G17KT 9SM FEW005 BKN009 BKN015 OVC020 12/11 A2956 RMK SLP012 DENSITY ALT 400FT=
METAR CYTZ 120300Z AUTO 07013G19KT 9SM SCT007 OVC013 12/11 A2956 RMK SLP011 DENSITY ALT 400FT=
SPECI CYTZ 120241Z AUTO 07019G24KT 9SM SCT009 BKN014 BKN039 OVC066 12/12 A2955 RMK SLP008 DENSITY ALT 500FT=
SPECI CYTZ 120237Z AUTO 06020KT 9SM -RA FEW007 BKN012 BKN024 OVC066 12/12 A2954 RMK SLP007 DENSITY ALT 500FT=
METAR CYTZ 120200Z AUTO 06016G21KT 9SM -RA OVC006 11/11 A2955 RMK SLP009 DENSITY ALT 400FT=
METAR CYTZ 120100Z AUTO 06015KT 9SM -RA BKN008 BKN055 OVC069 13/12 A2956 RMK SLP011 DENSITY ALT 500FT=

TAF CYTZ 120138Z 1202/1302 06012KT 2SM -RA BR BKN008 OVC050 TEMPO
1202/1204 6SM -DZ BR SCT008 OVC050
FM120400 06012KT 11/2SM -RA BR OVC004 TEMPO 1204/1211 6SM -DZ BR
OVC006
FM121100 06010KT 2SM -RA BR OVC005
FM121800 06006KT 2SM -DZ BR BKN005 BKN060
FM122200 07008KT 11/2SM -DZ BR OVC003
RMK FCST BASED ON AUTO OBS. NXT FCST WILL BE ISSUED AT 120800Z=

WIARTON/ON    

METAR CYVV 120300Z 00000KT 10SM OVC050 11/10 A2955 RMK SC8 SLP010 DENSITY ALT 900FT=
METAR CYVV 120200Z 07006KT 15SM OVC050 11/11 A2954 RMK SC8 SLP008 DENSITY ALT 900FT=
METAR CYVV 120100Z 07005KT 020V080 15SM BKN045 11/10 A2955 RMK SC7 SLP009 DENSITY ALT 900FT=

*** REMARK        : Forecast period has ended; this was the last TAF issued
*** REMARQUE : La période de prévision est échue; ceci était le dernier TAF qui a été émis
TAF CYVV 111939Z 1120/1123 08005KT P6SM FEW030 BKN100 TEMPO 1120/1123
P6SM -SHRA FEW008 BKN020 OVC050
RMK NXT FCST WILL BE ISSUED AT 121045Z=
Your time UTC time
Weather data provided by Environment Canada and NAV CANADA